sensor_id;sensor_type;location;lat;lon;timestamp;pressure;altitude;pressure_sealevel;temperature;humidity
2268;BME280;11052;43.338;25.502;2023-04-20T00:17:46;100186.81;;;11.52;100.00
2268;BME280;11052;43.338;25.502;2023-04-20T00:20:13;100189.91;;;11.61;100.00
2268;BME280;11052;43.338;25.502;2023-04-20T00:22:40;100186.47;;;11.61;100.00
2268;BME280;11052;43.338;25.502;2023-04-20T00:25:08;100196.84;;;11.61;100.00
2268;BME280;11052;43.338;25.502;2023-04-20T00:27:35;100190.03;;;11.58;100.00
2268;BME280;11052;43.338;25.502;2023-04-20T00:30:03;100194.38;;;11.58;100.00
2268;BME280;11052;43.338;25.502;2023-04-20T00:32:30;100188.16;;;11.62;100.00
2268;BME280;11052;43.338;25.502;2023-04-20T00:34:59;100195.06;;;11.63;100.00
2268;BME280;11052;43.338;25.502;2023-04-20T00:37:26;100192.47;;;11.63;100.00
2268;BME280;11052;43.338;25.502;2023-04-20T00:39:54;100196.13;;;11.57;100.00
2268;BME280;11052;43.338;25.502;2023-04-20T00:42:21;100199.44;;;11.61;100.00
2268;BME280;11052;43.338;25.502;2023-04-20T00:44:48;100197.66;;;11.63;100.00
2268;BME280;11052;43.338;25.502;2023-04-20T00:47:16;100197.03;;;11.56;100.00
2268;BME280;11052;43.338;25.502;2023-04-20T00:49:43;100197.75;;;11.60;100.00
2268;BME280;11052;43.338;25.502;2023-04-20T00:52:11;100192.56;;;11.60;100.00
2268;BME280;11052;43.338;25.502;2023-04-20T00:54:39;100201.38;;;11.56;100.00
2268;BME280;11052;43.338;25.502;2023-04-20T00:57:06;100195.94;;;11.62;100.00
2268;BME280;11052;43.338;25.502;2023-04-20T00:59:33;100204.75;;;11.58;100.00
2268;BME280;11052;43.338;25.502;2023-04-20T01:02:00;100205.66;;;11.57;100.00
2268;BME280;11052;43.338;25.502;2023-04-20T01:04:27;100194.53;;;11.53;100.00
2268;BME280;11052;43.338;25.502;2023-04-20T01:06:54;100200.69;;;11.50;100.00
2268;BME280;11052;43.338;25.502;2023-04-20T01:09:23;100197.97;;;11.54;100.00
2268;BME280;11052;43.338;25.502;2023-04-20T01:11:50;100200.56;;;11.54;100.00
2268;BME280;11052;43.338;25.502;2023-04-20T01:14:17;100190.19;;;11.54;100.00
2268;BME280;11052;43.338;25.502;2023-04-20T01:16:44;100194.47;;;11.55;100.00
2268;BME280;11052;43.338;25.502;2023-04-20T01:19:12;100191.03;;;11.54;100.00
2268;BME280;11052;43.338;25.502;2023-04-20T01:21:39;100190.25;;;11.52;100.00
2268;BME280;11052;43.338;25.502;2023-04-20T01:24:09;100187.53;;;11.55;100.00
2268;BME280;11052;43.338;25.502;2023-04-20T01:26:36;100189.34;;;11.53;100.00
2268;BME280;11052;43.338;25.502;2023-04-20T01:29:03;100189.41;;;11.52;100.00
2268;BME280;11052;43.338;25.502;2023-04-20T01:31:30;100182.63;;;11.47;100.00
2268;BME280;11052;43.338;25.502;2023-04-20T01:33:58;100185.28;;;11.46;100.00
2268;BME280;11052;43.338;25.502;2023-04-20T01:36:25;100181.81;;;11.45;100.00
2268;BME280;11052;43.338;25.502;2023-04-20T01:38:52;100184.47;;;11.44;100.00
2268;BME280;11052;43.338;25.502;2023-04-20T01:41:20;100189.72;;;11.42;100.00
2268;BME280;11052;43.338;25.502;2023-04-20T01:43:47;100185.31;;;11.44;100.00
2268;BME280;11052;43.338;25.502;2023-04-20T01:46:14;100179.34;;;11.42;100.00
2268;BME280;11052;43.338;25.502;2023-04-20T01:48:42;100180.34;;;11.38;100.00
2268;BME280;11052;43.338;25.502;2023-04-20T01:51:08;100177.13;;;11.32;100.00
2268;BME280;11052;43.338;25.502;2023-04-20T01:53:36;100173.69;;;11.31;100.00
2268;BME280;11052;43.338;25.502;2023-04-20T01:56:03;100182.19;;;11.35;100.00
2268;BME280;11052;43.338;25.502;2023-04-20T01:58:32;100171.88;;;11.33;100.00
2268;BME280;11052;43.338;25.502;2023-04-20T02:01:00;100170.63;;;11.20;100.00
2268;BME280;11052;43.338;25.502;2023-04-20T02:03:27;100171.59;;;11.18;100.00
2268;BME280;11052;43.338;25.502;2023-04-20T02:05:54;100170.00;;;11.13;100.00
2268;BME280;11052;43.338;25.502;2023-04-20T02:08:21;100169.84;;;11.18;100.00
2268;BME280;11052;43.338;25.502;2023-04-20T02:10:49;100171.06;;;11.08;100.00
2268;BME280;11052;43.338;25.502;2023-04-20T02:13:16;100164.28;;;11.04;100.00
2268;BME280;11052;43.338;25.502;2023-04-20T02:15:44;100159.69;;;11.12;100.00
2268;BME280;11052;43.338;25.502;2023-04-20T02:18:11;100158.41;;;10.99;100.00
2268;BME280;11052;43.338;25.502;2023-04-20T02:20:40;100150.81;;;10.93;100.00
2268;BME280;11052;43.338;25.502;2023-04-20T02:23:07;100156.06;;;10.91;100.00
2268;BME280;11052;43.338;25.502;2023-04-20T02:25:34;100158.44;;;10.97;100.00
2268;BME280;11052;43.338;25.502;2023-04-20T02:28:02;100153.63;;;10.87;100.00
2268;BME280;11052;43.338;25.502;2023-04-20T02:30:29;100159.00;;;10.80;100.00
2268;BME280;11052;43.338;25.502;2023-04-20T02:32:57;100165.16;;;10.78;100.00
2268;BME280;11052;43.338;25.502;2023-04-20T02:35:24;100165.16;;;10.78;100.00
2268;BME280;11052;43.338;25.502;2023-04-20T02:37:52;100171.13;;;10.80;100.00
2268;BME280;11052;43.338;25.502;2023-04-20T02:40:19;100170.47;;;10.73;100.00
2268;BME280;11052;43.338;25.502;2023-04-20T02:42:46;100174.28;;;10.63;100.00
2268;BME280;11052;43.338;25.502;2023-04-20T02:45:13;100174.97;;;10.68;100.00
2268;BME280;11052;43.338;25.502;2023-04-20T02:47:40;100176.16;;;10.58;100.00
2268;BME280;11052;43.338;25.502;2023-04-20T02:50:10;100188.38;;;10.55;100.00
2268;BME280;11052;43.338;25.502;2023-04-20T02:52:37;100184.75;;;10.60;100.00
2268;BME280;11052;43.338;25.502;2023-04-20T02:55:04;100188.31;;;10.56;100.00
2268;BME280;11052;43.338;25.502;2023-04-20T02:57:32;100187.47;;;10.56;100.00
2268;BME280;11052;43.338;25.502;2023-04-20T02:59:59;100191.19;;;10.47;100.00
2268;BME280;11052;43.338;25.502;2023-04-20T03:02:27;100190.06;;;10.56;100.00
2268;BME280;11052;43.338;25.502;2023-04-20T03:04:54;100186.44;;;10.61;100.00
2268;BME280;11052;43.338;25.502;2023-04-20T03:07:22;100189.13;;;10.58;100.00
2268;BME280;11052;43.338;25.502;2023-04-20T03:09:50;100186.69;;;10.54;100.00
2268;BME280;11052;43.338;25.502;2023-04-20T03:12:17;100191.66;;;10.60;100.00
2268;BME280;11052;43.338;25.502;2023-04-20T03:14:44;100190.25;;;10.49;100.00
2268;BME280;11052;43.338;25.502;2023-04-20T03:17:11;100190.91;;;10.56;100.00
2268;BME280;11052;43.338;25.502;2023-04-20T03:19:38;100191.81;;;10.55;100.00
2268;BME280;11052;43.338;25.502;2023-04-20T03:22:06;100191.94;;;10.50;100.00
2268;BME280;11052;43.338;25.502;2023-04-20T03:24:34;100185.06;;;10.49;100.00
2268;BME280;11052;43.338;25.502;2023-04-20T03:27:01;100188.47;;;10.51;100.00
2268;BME280;11052;43.338;25.502;2023-04-20T03:29:28;100195.31;;;10.54;100.00
2268;BME280;11052;43.338;25.502;2023-04-20T03:31:55;100185.78;;;10.55;100.00
2268;BME280;11052;43.338;25.502;2023-04-20T03:34:23;100184.78;;;10.59;100.00
2268;BME280;11052;43.338;25.502;2023-04-20T03:36:51;100187.28;;;10.62;100.00
2268;BME280;11052;43.338;25.502;2023-04-20T03:39:18;100189.22;;;10.55;100.00
2268;BME280;11052;43.338;25.502;2023-04-20T03:41:46;100189.31;;;10.52;100.00
2268;BME280;11052;43.338;25.502;2023-04-20T03:44:13;100187.22;;;10.37;100.00
2268;BME280;11052;43.338;25.502;2023-04-20T03:46:41;100190.34;;;10.46;100.00
2268;BME280;11052;43.338;25.502;2023-04-20T03:49:08;100191.19;;;10.47;100.00
2268;BME280;11052;43.338;25.502;2023-04-20T03:51:35;100193.03;;;10.43;100.00
2268;BME280;11052;43.338;25.502;2023-04-20T03:54:02;100190.66;;;10.37;100.00
2268;BME280;11052;43.338;25.502;2023-04-20T03:56:30;100198.19;;;10.45;100.00
2268;BME280;11052;43.338;25.502;2023-04-20T03:58:59;100197.22;;;10.47;100.00
2268;BME280;11052;43.338;25.502;2023-04-20T04:01:26;100206.75;;;10.47;100.00
2268;BME280;11052;43.338;25.502;2023-04-20T04:03:53;100205.56;;;10.57;100.00
2268;BME280;11052;43.338;25.502;2023-04-20T04:06:20;100201.28;;;10.56;100.00
2268;BME280;11052;43.338;25.502;2023-04-20T04:08:47;100196.00;;;10.59;100.00
2268;BME280;11052;43.338;25.502;2023-04-20T04:11:15;100199.59;;;10.55;100.00
2268;BME280;11052;43.338;25.502;2023-04-20T04:13:42;100193.41;;;10.59;100.00
2268;BME280;11052;43.338;25.502;2023-04-20T04:16:10;100185.16;;;10.74;100.00
2268;BME280;11052;43.338;25.502;2023-04-20T04:18:42;100193.88;;;10.72;100.00
2268;BME280;11052;43.338;25.502;2023-04-20T04:21:10;100195.94;;;10.61;100.00
2268;BME280;11052;43.338;25.502;2023-04-20T04:23:37;100197.44;;;10.68;100.00
2268;BME280;11052;43.338;25.502;2023-04-20T04:26:05;100193.81;;;10.73;100.00
2268;BME280;11052;43.338;25.502;2023-04-20T04:28:32;100198.91;;;10.76;100.00
2268;BME280;11052;43.338;25.502;2023-04-20T04:30:59;100199.56;;;10.83;100.00
2268;BME280;11052;43.338;25.502;2023-04-20T04:33:31;100201.78;;;10.94;100.00
2268;BME280;11052;43.338;25.502;2023-04-20T04:35:59;100212.03;;;10.98;100.00
2268;BME280;11052;43.338;25.502;2023-04-20T04:38:27;100216.47;;;10.95;100.00
2268;BME280;11052;43.338;25.502;2023-04-20T04:40:54;100219.50;;;11.07;100.00
2268;BME280;11052;43.338;25.502;2023-04-20T04:43:21;100220.19;;;11.12;100.00
2268;BME280;11052;43.338;25.502;2023-04-20T04:45:50;100206.81;;;11.25;100.00
2268;BME280;11052;43.338;25.502;2023-04-20T04:48:18;100211.31;;;11.20;100.00
2268;BME280;11052;43.338;25.502;2023-04-20T04:50:46;100207.47;;;11.30;100.00
2268;BME280;11052;43.338;25.502;2023-04-20T04:53:13;100209.09;;;11.32;100.00
2268;BME280;11052;43.338;25.502;2023-04-20T04:55:40;100211.19;;;11.23;100.00
2268;BME280;11052;43.338;25.502;2023-04-20T04:58:07;100211.00;;;11.27;100.00
2268;BME280;11052;43.338;25.502;2023-04-20T05:00:34;100214.53;;;11.26;100.00
2268;BME280;11052;43.338;25.502;2023-04-20T05:03:02;100219.72;;;11.26;100.00
2268;BME280;11052;43.338;25.502;2023-04-20T05:05:29;100225.72;;;11.27;100.00
2268;BME280;11052;43.338;25.502;2023-04-20T05:07:57;100221.34;;;11.29;100.00
2268;BME280;11052;43.338;25.502;2023-04-20T05:10:24;100221.19;;;11.33;100.00
2268;BME280;11052;43.338;25.502;2023-04-20T05:12:51;100231.56;;;11.33;100.00
2268;BME280;11052;43.338;25.502;2023-04-20T05:15:18;100231.56;;;11.33;100.00
2268;BME280;11052;43.338;25.502;2023-04-20T05:17:45;100226.06;;;11.42;100.00
2268;BME280;11052;43.338;25.502;2023-04-20T05:20:14;100235.38;;;11.48;100.00
2268;BME280;11052;43.338;25.502;2023-04-20T05:22:41;100243.91;;;11.52;100.00
2268;BME280;11052;43.338;25.502;2023-04-20T05:25:10;100243.81;;;11.55;100.00
2268;BME280;11052;43.338;25.502;2023-04-20T05:27:37;100246.41;;;11.55;100.00
2268;BME280;11052;43.338;25.502;2023-04-20T05:30:05;100245.19;;;11.65;100.00
2268;BME280;11052;43.338;25.502;2023-04-20T05:32:32;100245.06;;;11.68;100.00
2268;BME280;11052;43.338;25.502;2023-04-20T05:34:59;100247.63;;;11.69;100.00
2268;BME280;11052;43.338;25.502;2023-04-20T05:37:26;100250.09;;;11.72;100.00
2268;BME280;11052;43.338;25.502;2023-04-20T05:39:53;100252.28;;;11.85;100.00
2268;BME280;11052;43.338;25.502;2023-04-20T05:42:22;100248.53;;;11.93;100.00
2268;BME280;11052;43.338;25.502;2023-04-20T05:44:49;100254.66;;;11.91;100.00
2268;BME280;11052;43.338;25.502;2023-04-20T06:08:43;100261.38;;;12.20;100.00
2268;BME280;11052;43.338;25.502;2023-04-20T06:11:10;100258.19;;;12.35;100.00
2268;BME280;11052;43.338;25.502;2023-04-20T06:13:37;100255.91;;;12.49;100.00
2268;BME280;11052;43.338;25.502;2023-04-20T06:16:05;100254.16;;;12.50;100.00
2268;BME280;11052;43.338;25.502;2023-04-20T06:18:34;100262.34;;;12.62;100.00
2268;BME280;11052;43.338;25.502;2023-04-20T06:21:01;100262.88;;;12.70;100.00
2268;BME280;11052;43.338;25.502;2023-04-20T06:23:28;100260.09;;;12.75;100.00
2268;BME280;11052;43.338;25.502;2023-04-20T06:25:57;100267.13;;;12.95;100.00
2268;BME280;11052;43.338;25.502;2023-04-20T06:28:24;100263.72;;;12.93;100.00
2268;BME280;11052;43.338;25.502;2023-04-20T06:30:51;100259.19;;;12.98;100.00
2268;BME280;11052;43.338;25.502;2023-04-20T06:33:18;100255.28;;;13.08;100.00
2268;BME280;11052;43.338;25.502;2023-04-20T06:35:45;100260.16;;;13.16;100.00
2268;BME280;11052;43.338;25.502;2023-04-20T06:38:12;100260.03;;;13.40;100.00
2268;BME280;11052;43.338;25.502;2023-04-20T06:40:39;100262.50;;;13.43;100.00
2268;BME280;11052;43.338;25.502;2023-04-20T06:43:08;100260.16;;;13.58;100.00
2268;BME280;11052;43.338;25.502;2023-04-20T06:45:35;100269.19;;;13.69;100.00
2268;BME280;11052;43.338;25.502;2023-04-20T06:48:02;100270.13;;;13.68;100.00
2268;BME280;11052;43.338;25.502;2023-04-20T06:50:29;100272.78;;;13.67;100.00
2268;BME280;11052;43.338;25.502;2023-04-20T06:52:56;100280.84;;;13.81;100.00
2268;BME280;11052;43.338;25.502;2023-04-20T06:55:23;100276.91;;;13.91;100.00
2268;BME280;11052;43.338;25.502;2023-04-20T06:57:50;100278.59;;;13.92;100.00
2268;BME280;11052;43.338;25.502;2023-04-20T07:00:19;100273.38;;;13.92;100.00
2268;BME280;11052;43.338;25.502;2023-04-20T07:02:48;100277.03;;;13.88;100.00
2268;BME280;11052;43.338;25.502;2023-04-20T07:05:16;100275.22;;;13.90;100.00
2268;BME280;11052;43.338;25.502;2023-04-20T07:07:44;100269.72;;;13.96;100.00
2268;BME280;11052;43.338;25.502;2023-04-20T07:10:12;100273.81;;;14.02;100.00
2268;BME280;11052;43.338;25.502;2023-04-20T07:12:40;100276.78;;;14.13;100.00
2268;BME280;11052;43.338;25.502;2023-04-20T07:15:08;100278.50;;;14.14;100.00
2268;BME280;11052;43.338;25.502;2023-04-20T07:17:37;100275.16;;;14.10;100.00
2268;BME280;11052;43.338;25.502;2023-04-20T07:20:05;100273.13;;;14.17;100.00
2268;BME280;11052;43.338;25.502;2023-04-20T07:22:33;100275.81;;;14.34;100.00
2268;BME280;11052;43.338;25.502;2023-04-20T07:25:01;100279.53;;;14.49;100.00
2268;BME280;11052;43.338;25.502;2023-04-20T07:27:28;100282.91;;;14.70;100.00
2268;BME280;11052;43.338;25.502;2023-04-20T07:29:57;100277.63;;;14.89;100.00
2268;BME280;11052;43.338;25.502;2023-04-20T07:32:24;100276.72;;;15.07;100.00
2268;BME280;11052;43.338;25.502;2023-04-20T07:34:53;100276.41;;;15.13;100.00
2268;BME280;11052;43.338;25.502;2023-04-20T07:37:20;100274.22;;;15.23;100.00
2268;BME280;11052;43.338;25.502;2023-04-20T07:39:47;100275.22;;;15.37;100.00
2268;BME280;11052;43.338;25.502;2023-04-20T07:42:14;100266.44;;;15.56;100.00
2268;BME280;11052;43.338;25.502;2023-04-20T07:44:41;100264.66;;;15.73;100.00
2268;BME280;11052;43.338;25.502;2023-04-20T07:47:08;100259.91;;;15.97;100.00
2268;BME280;11052;43.338;25.502;2023-04-20T07:49:35;100252.84;;;15.99;100.00
2268;BME280;11052;43.338;25.502;2023-04-20T07:52:06;100253.59;;;16.01;100.00
2268;BME280;11052;43.338;25.502;2023-04-20T07:54:34;100250.88;;;15.87;100.00
2268;BME280;11052;43.338;25.502;2023-04-20T07:57:01;100254.59;;;15.99;100.00
2268;BME280;11052;43.338;25.502;2023-04-20T07:59:28;100258.56;;;15.90;100.00
2268;BME280;11052;43.338;25.502;2023-04-20T08:01:58;100259.59;;;16.03;100.00
2268;BME280;11052;43.338;25.502;2023-04-20T08:04:26;100260.97;;;16.11;100.00
2268;BME280;11052;43.338;25.502;2023-04-20T08:06:53;100263.50;;;16.12;100.00
2268;BME280;11052;43.338;25.502;2023-04-20T08:09:22;100259.59;;;16.03;100.00
2268;BME280;11052;43.338;25.502;2023-04-20T08:11:50;100255.16;;;16.21;100.00
2268;BME280;11052;43.338;25.502;2023-04-20T08:14:17;100259.34;;;16.55;100.00
2268;BME280;11052;43.338;25.502;2023-04-20T08:16:44;100248.66;;;16.76;100.00
2268;BME280;11052;43.338;25.502;2023-04-20T08:19:12;100249.25;;;16.81;100.00
2268;BME280;11052;43.338;25.502;2023-04-20T08:21:39;100249.72;;;17.47;100.00
2268;BME280;11052;43.338;25.502;2023-04-20T08:24:07;100259.63;;;17.86;100.00
2268;BME280;11052;43.338;25.502;2023-04-20T08:26:37;100262.53;;;17.96;100.00
2268;BME280;11052;43.338;25.502;2023-04-20T08:29:04;100253.72;;;17.83;100.00
2268;BME280;11052;43.338;25.502;2023-04-20T08:31:31;100248.81;;;17.62;100.00
2268;BME280;11052;43.338;25.502;2023-04-20T08:33:58;100257.19;;;17.39;100.00
2268;BME280;11052;43.338;25.502;2023-04-20T08:36:25;100254.38;;;17.28;100.00
2268;BME280;11052;43.338;25.502;2023-04-20T08:38:55;100251.44;;;17.18;100.00
2268;BME280;11052;43.338;25.502;2023-04-20T08:41:23;100244.84;;;17.27;100.00
2268;BME280;11052;43.338;25.502;2023-04-20T08:43:52;100249.06;;;17.44;100.00
2268;BME280;11052;43.338;25.502;2023-04-20T08:46:19;100244.50;;;17.61;100.00
2268;BME280;11052;43.338;25.502;2023-04-20T08:48:46;100251.75;;;17.86;100.00
2268;BME280;11052;43.338;25.502;2023-04-20T08:51:14;100251.75;;;18.00;100.00
2268;BME280;11052;43.338;25.502;2023-04-20T08:53:42;100247.16;;;17.90;100.00
2268;BME280;11052;43.338;25.502;2023-04-20T08:56:10;100252.31;;;17.91;100.00
2268;BME280;11052;43.338;25.502;2023-04-20T08:58:37;100249.13;;;17.86;100.00
2268;BME280;11052;43.338;25.502;2023-04-20T09:01:09;100240.28;;;18.30;100.00
2268;BME280;11052;43.338;25.502;2023-04-20T09:03:37;100240.88;;;18.62;100.00
2268;BME280;11052;43.338;25.502;2023-04-20T09:06:05;100247.34;;;18.56;100.00
2268;BME280;11052;43.338;25.502;2023-04-20T09:08:36;100250.50;;;18.20;100.00
2268;BME280;11052;43.338;25.502;2023-04-20T09:11:04;100243.59;;;18.60;100.00
2268;BME280;11052;43.338;25.502;2023-04-20T09:13:31;100238.56;;;18.84;100.00
2268;BME280;11052;43.338;25.502;2023-04-20T09:16:10;100235.13;;;19.09;100.00
2268;BME280;11052;43.338;25.502;2023-04-20T09:18:38;100238.19;;;19.03;100.00
2268;BME280;11052;43.338;25.502;2023-04-20T09:21:08;100237.34;;;19.03;100.00
2268;BME280;11052;43.338;25.502;2023-04-20T09:23:35;100239.66;;;18.94;100.00
2268;BME280;11052;43.338;25.502;2023-04-20T09:26:03;100243.91;;;18.83;100.00
2268;BME280;11052;43.338;25.502;2023-04-20T09:28:37;100244.47;;;18.88;100.00
2268;BME280;11052;43.338;25.502;2023-04-20T09:31:04;100244.00;;;18.81;100.00
2268;BME280;11052;43.338;25.502;2023-04-20T09:33:33;100242.53;;;18.77;100.00
2268;BME280;11052;43.338;25.502;2023-04-20T09:36:03;100244.59;;;18.99;100.00
2268;BME280;11052;43.338;25.502;2023-04-20T09:38:31;100231.75;;;19.07;100.00
2268;BME280;11052;43.338;25.502;2023-04-20T09:40:58;100228.94;;;18.97;100.00
2268;BME280;11052;43.338;25.502;2023-04-20T09:43:27;100238.84;;;18.80;100.00
2268;BME280;11052;43.338;25.502;2023-04-20T09:45:55;100235.16;;;18.70;100.00
2268;BME280;11052;43.338;25.502;2023-04-20T09:48:23;100232.50;;;18.70;100.00
2268;BME280;11052;43.338;25.502;2023-04-20T09:50:51;100236.81;;;18.71;100.00
2268;BME280;11052;43.338;25.502;2023-04-20T09:53:19;100238.06;;;18.92;100.00
2268;BME280;11052;43.338;25.502;2023-04-20T09:55:47;100228.59;;;19.54;100.00
2268;BME280;11052;43.338;25.502;2023-04-20T09:58:17;100224.97;;;20.06;100.00
2268;BME280;11052;43.338;25.502;2023-04-20T10:00:44;100226.47;;;20.47;100.00
2268;BME280;11052;43.338;25.502;2023-04-20T10:03:15;100218.25;;;20.75;100.00
2268;BME280;11052;43.338;25.502;2023-04-20T10:05:43;100227.47;;;20.81;90.43
2268;BME280;11052;43.338;25.502;2023-04-20T10:08:11;100220.22;;;20.60;88.41
2268;BME280;11052;43.338;25.502;2023-04-20T10:10:45;100220.72;;;20.29;84.91
2268;BME280;11052;43.338;25.502;2023-04-20T10:13:13;100221.22;;;20.34;92.85
2268;BME280;11052;43.338;25.502;2023-04-20T10:15:41;100215.84;;;20.72;89.42
2268;BME280;11052;43.338;25.502;2023-04-20T10:18:16;100207.53;;;21.01;87.01
2268;BME280;11052;43.338;25.502;2023-04-20T10:20:43;100214.56;;;20.78;85.04
2268;BME280;11052;43.338;25.502;2023-04-20T10:23:12;100206.47;;;20.32;84.71
2268;BME280;11052;43.338;25.502;2023-04-20T10:25:41;100197.63;;;19.96;85.79
2268;BME280;11052;43.338;25.502;2023-04-20T10:28:10;100198.53;;;19.71;86.75
2268;BME280;11052;43.338;25.502;2023-04-20T10:30:48;100205.03;;;19.78;89.46
2268;BME280;11052;43.338;25.502;2023-04-20T10:33:16;100196.22;;;20.16;93.07
2268;BME280;11052;43.338;25.502;2023-04-20T10:35:47;100198.75;;;20.05;87.37
2268;BME280;11052;43.338;25.502;2023-04-20T10:38:27;100196.56;;;19.98;79.68
2268;BME280;11052;43.338;25.502;2023-04-20T10:40:54;100194.78;;;19.99;80.85
2268;BME280;11052;43.338;25.502;2023-04-20T10:43:22;100194.81;;;20.23;84.79
2268;BME280;11052;43.338;25.502;2023-04-20T10:45:49;100193.94;;;20.48;84.38
2268;BME280;11052;43.338;25.502;2023-04-20T10:48:17;100194.88;;;20.71;81.93
2268;BME280;11052;43.338;25.502;2023-04-20T10:50:45;100190.84;;;20.78;76.92
2268;BME280;11052;43.338;25.502;2023-04-20T10:53:21;100202.41;;;21.10;81.99
2268;BME280;11052;43.338;25.502;2023-04-20T10:55:57;100196.97;;;21.24;77.37
2268;BME280;11052;43.338;25.502;2023-04-20T10:58:24;100190.53;;;21.40;76.14
2268;BME280;11052;43.338;25.502;2023-04-20T11:00:58;100189.81;;;21.82;76.78
2268;BME280;11052;43.338;25.502;2023-04-20T11:03:27;100184.44;;;22.06;75.75
2268;BME280;11052;43.338;25.502;2023-04-20T11:05:55;100188.84;;;21.27;79.04
2268;BME280;11052;43.338;25.502;2023-04-20T11:08:39;100185.38;;;21.03;78.59
2268;BME280;11052;43.338;25.502;2023-04-20T11:11:17;100180.53;;;20.86;80.32
2268;BME280;11052;43.338;25.502;2023-04-20T11:13:45;100186.66;;;20.86;78.46
2268;BME280;11052;43.338;25.502;2023-04-20T11:16:13;100183.84;;;20.66;75.17
2268;BME280;11052;43.338;25.502;2023-04-20T11:18:52;100182.38;;;20.97;82.08
2268;BME280;11052;43.338;25.502;2023-04-20T11:21:20;100172.56;;;21.34;81.80
2268;BME280;11052;43.338;25.502;2023-04-20T11:23:49;100176.41;;;21.52;76.58
2268;BME280;11052;43.338;25.502;2023-04-20T11:26:16;100172.56;;;21.56;75.13
2268;BME280;11052;43.338;25.502;2023-04-20T11:28:50;100170.16;;;21.42;71.67
2268;BME280;11052;43.338;25.502;2023-04-20T11:31:18;100164.16;;;21.40;76.02
2268;BME280;11052;43.338;25.502;2023-04-20T11:33:45;100163.22;;;21.06;75.50
2268;BME280;11052;43.338;25.502;2023-04-20T11:36:19;100162.94;;;20.51;74.22
2268;BME280;11052;43.338;25.502;2023-04-20T11:38:47;100159.28;;;20.41;76.78
2268;BME280;11052;43.338;25.502;2023-04-20T11:41:16;100157.56;;;20.16;78.92
2268;BME280;11052;43.338;25.502;2023-04-20T11:43:43;100148.97;;;20.38;77.96
2268;BME280;11052;43.338;25.502;2023-04-20T11:46:14;100131.50;;;20.61;76.15
2268;BME280;11052;43.338;25.502;2023-04-20T11:48:42;100139.91;;;20.66;73.70
2268;BME280;11052;43.338;25.502;2023-04-20T11:51:09;100139.13;;;20.99;75.79
2268;BME280;11052;43.338;25.502;2023-04-20T11:53:37;100140.78;;;21.35;78.60
2268;BME280;11052;43.338;25.502;2023-04-20T11:56:04;100129.81;;;21.17;77.00
2268;BME280;11052;43.338;25.502;2023-04-20T11:58:33;100134.25;;;20.59;75.90
2268;BME280;11052;43.338;25.502;2023-04-20T12:01:00;100130.84;;;20.46;75.94
2268;BME280;11052;43.338;25.502;2023-04-20T12:03:28;100124.13;;;20.06;79.11
2268;BME280;11052;43.338;25.502;2023-04-20T12:05:56;100126.94;;;19.91;78.63
2268;BME280;11052;43.338;25.502;2023-04-20T12:08:23;100118.09;;;20.16;78.61
2268;BME280;11052;43.338;25.502;2023-04-20T12:10:50;100112.78;;;20.53;74.10
2268;BME280;11052;43.338;25.502;2023-04-20T12:13:17;100111.44;;;20.47;71.85
2268;BME280;11052;43.338;25.502;2023-04-20T12:15:45;100115.56;;;20.63;71.78
2268;BME280;11052;43.338;25.502;2023-04-20T12:18:12;100119.66;;;20.67;73.81
2268;BME280;11052;43.338;25.502;2023-04-20T12:20:40;100115.03;;;20.46;75.70
2268;BME280;11052;43.338;25.502;2023-04-20T12:23:07;100110.34;;;20.26;74.54
2268;BME280;11052;43.338;25.502;2023-04-20T12:25:34;100107.16;;;20.10;77.98
2268;BME280;11052;43.338;25.502;2023-04-20T12:28:01;100098.97;;;20.02;75.23
2268;BME280;11052;43.338;25.502;2023-04-20T12:30:31;100097.41;;;19.75;76.72
2268;BME280;11052;43.338;25.502;2023-04-20T12:33:02;100091.22;;;19.63;77.33
2268;BME280;11052;43.338;25.502;2023-04-20T12:35:29;100092.94;;;19.52;79.58
2268;BME280;11052;43.338;25.502;2023-04-20T12:37:56;100095.31;;;19.42;80.69
2268;BME280;11052;43.338;25.502;2023-04-20T12:40:24;100093.03;;;19.38;93.89
2268;BME280;11052;43.338;25.502;2023-04-20T12:42:51;100085.78;;;19.28;94.34
2268;BME280;11052;43.338;25.502;2023-04-20T12:45:18;100085.47;;;19.20;100.00
2268;BME280;11052;43.338;25.502;2023-04-20T12:47:45;100076.88;;;19.06;100.00
2268;BME280;11052;43.338;25.502;2023-04-20T12:50:14;100076.97;;;19.04;100.00
2268;BME280;11052;43.338;25.502;2023-04-20T12:52:41;100073.78;;;19.12;100.00
2268;BME280;11052;43.338;25.502;2023-04-20T12:55:08;100070.25;;;19.00;95.85
2268;BME280;11052;43.338;25.502;2023-04-20T12:57:36;100072.03;;;18.87;88.56
2268;BME280;11052;43.338;25.502;2023-04-20T13:00:05;100070.56;;;18.95;90.54
2268;BME280;11052;43.338;25.502;2023-04-20T13:02:33;100063.31;;;18.99;94.81
2268;BME280;11052;43.338;25.502;2023-04-20T13:05:01;100060.28;;;19.05;89.81
2268;BME280;11052;43.338;25.502;2023-04-20T13:07:31;100048.41;;;18.87;94.12
2268;BME280;11052;43.338;25.502;2023-04-20T13:09:59;100051.44;;;19.06;89.90
2268;BME280;11052;43.338;25.502;2023-04-20T13:12:26;100048.56;;;19.09;92.58
2268;BME280;11052;43.338;25.502;2023-04-20T13:14:53;100065.16;;;19.22;90.47
2268;BME280;11052;43.338;25.502;2023-04-20T13:17:20;100051.56;;;19.67;86.14
2268;BME280;11052;43.338;25.502;2023-04-20T13:19:48;100054.69;;;19.95;81.91
2268;BME280;11052;43.338;25.502;2023-04-20T13:22:16;100048.63;;;20.30;80.15
2268;BME280;11052;43.338;25.502;2023-04-20T13:24:45;100049.13;;;20.35;76.68